• Join FlightAware (Why Join?)
  • Login
  • US Flag 
11:23AM EST


 

Airport Tracker/Info


-or-


 

Live Flight TrackerFlight Track Log ✈ CSN3233 ✈ 22-May-2013 ✈ ZGKL / KWL - ZGGG / CAN

Flight Track Log - Related Links

Times and Time Zones

All times are in EDT time to prevent confusion due to time zone crossing. See the CSN3233 flight status page for this flight to view local times or setup timezone preferences in your user account.

Time Position Orientation Groundspeed Altitude Reporting Facility
EDT Latitude Longitude Course Direction KTS MPH feet Rate Location/Type
08:17AM 25.1584 110.1493 121° Southeast  Level Estimated
08:18AM 25.0987 110.2593 121° Southeast  Level Estimated
08:19AM 25.0388 110.3692 121° Southeast  Level Estimated
08:20AM 24.9789 110.4790 121° Southeast  Level Estimated
08:21AM 24.9189 110.5887 121° Southeast  Level Estimated
08:22AM 24.8588 110.6982 121° Southeast  Level Estimated
08:23AM 24.7987 110.8077 121° Southeast  Level Estimated
08:24AM 24.7384 110.9171 121° Southeast  Level Estimated
08:25AM 24.6781 111.0263 121° Southeast  Level Estimated
08:26AM 24.6177 111.1355 121° Southeast  Level Estimated
08:27AM 24.5572 111.2445 121° Southeast  Level Estimated
08:28AM 24.4967 111.3535 121° Southeast  Level Estimated
08:29AM 24.4361 111.4623 121° Southeast  Level Estimated
08:30AM 24.3754 111.5710 121° Southeast  Level Estimated
08:31AM 24.3146 111.6796 122° Southeast  Level Estimated
08:32AM 24.2537 111.7882 122° Southeast  Level Estimated
08:33AM 24.1928 111.8966 122° Southeast  Level Estimated
08:34AM 24.1317 112.0049 122° Southeast  Level Estimated
08:35AM 24.0707 112.1131 122° Southeast  Level Estimated
08:36AM 24.0095 112.2212 122° Southeast  Level Estimated
08:37AM 23.9482 112.3292 122° Southeast  Level Estimated
08:38AM 23.8869 112.4371 122° Southeast  Level Estimated
08:39AM 23.8255 112.5449 122° Southeast  Level Estimated
08:40AM 23.7640 112.6526 122° Southeast  Level Estimated
08:41AM 23.7025 112.7602 122° Southeast  Level Estimated
08:42AM 23.6409 112.8677 122° Southeast  Level Estimated
08:43AM 23.5792 112.9751 122° Southeast  Level Estimated
08:44AM 23.5174 113.0824 122° Southeast  Level Estimated
08:45AM 23.4556 113.1896 122° Southeast  Level Estimated
08:46AM 23.3937 113.2967 122° Southeast  Level Estimated
08:47AM 23.3924 113.2988 122° Southeast  Level Estimated
08:48AM 23.3924 113.2988 223° Southwest  Level Estimated
08:49AM 23.3924 113.2988 223° Southwest  Level Estimated
08:50AM 23.3924 113.2988 223° Southwest  Level Estimated
08:51AM 23.3924 113.2988 223° Southwest  Level Estimated
08:52AM 23.3924 113.2988 223° Southwest  Level Estimated
08:53AM 23.3924 113.2988 223° Southwest  Level Estimated
08:54AM 23.3924 113.2988 223° Southwest  Level Estimated
08:55AM 23.3924 113.2988 223° Southwest  Level Estimated
08:56AM 23.3924 113.2988 223° Southwest  Level Estimated
08:57AM 23.3924 113.2988 223° Southwest  Level Estimated
08:58AM 23.3924 113.2988 223° Southwest  Level Estimated
08:59AM 23.3924 113.2988 223° Southwest  Level Estimated
09:00AM 23.3924 113.2988 223° Southwest  Level Estimated
09:01AM 23.3924 113.2988 223° Southwest  Level Estimated
09:02AM 23.3924 113.2988 223° Southwest  Level Estimated